sensor_id;sensor_type;location;lat;lon;timestamp;pressure;altitude;pressure_sealevel;temperature;humidity
53689;BME280;39583;54.682;30.662;2023-02-26T09:39:09;97950.84;;;-0.67;100.00
53689;BME280;39583;54.682;30.662;2023-02-26T09:41:39;97946.34;;;-0.51;99.84
53689;BME280;39583;54.682;30.662;2023-02-26T09:47:20;97968.88;;;-0.55;95.52
53689;BME280;39583;54.682;30.662;2023-02-26T09:55:12;97967.22;;;-0.20;94.34
53689;BME280;39583;54.682;30.662;2023-02-26T09:57:44;97988.38;;;-0.20;93.11
53689;BME280;39583;54.682;30.662;2023-02-26T10:08:41;98018.00;;;0.11;92.05
53689;BME280;39583;54.682;30.662;2023-02-26T10:11:13;98026.53;;;0.07;91.55
53689;BME280;39583;54.682;30.662;2023-02-26T10:14:37;98029.31;;;-0.16;90.64
53689;BME280;39583;54.682;30.662;2023-02-26T10:16:47;98045.75;;;-0.21;91.75
53689;BME280;39583;54.682;30.662;2023-02-26T10:19:18;98041.47;;;-0.22;91.74
53689;BME280;39583;54.682;30.662;2023-02-26T10:21:55;98044.28;;;-0.09;92.12
53689;BME280;39583;54.682;30.662;2023-02-26T10:24:41;98050.22;;;-0.21;90.90
53689;BME280;39583;54.682;30.662;2023-02-26T10:27:15;98066.72;;;-0.19;91.09
53689;BME280;39583;54.682;30.662;2023-02-26T10:35:06;98076.91;;;-0.02;91.16
53689;BME280;39583;54.682;30.662;2023-02-26T10:38:13;98094.41;;;-0.01;90.80
53689;BME280;39583;54.682;30.662;2023-02-26T10:40:46;98099.69;;;0.14;90.15
53689;BME280;39583;54.682;30.662;2023-02-26T10:51:38;98100.78;;;0.20;89.04
53689;BME280;39583;54.682;30.662;2023-02-26T10:56:36;98121.50;;;0.38;88.24
53689;BME280;39583;54.682;30.662;2023-02-26T10:59:02;98123.09;;;0.32;87.43
53689;BME280;39583;54.682;30.662;2023-02-26T11:01:29;98130.94;;;0.25;88.09
53689;BME280;39583;54.682;30.662;2023-02-26T11:04:17;98140.25;;;0.36;88.90
53689;BME280;39583;54.682;30.662;2023-02-26T11:06:48;98144.38;;;0.24;87.69
53689;BME280;39583;54.682;30.662;2023-02-26T11:09:22;98162.75;;;0.11;88.24
53689;BME280;39583;54.682;30.662;2023-02-26T11:14:33;98169.25;;;-0.07;87.11
53689;BME280;39583;54.682;30.662;2023-02-26T11:17:22;98181.75;;;-0.01;87.63
53689;BME280;39583;54.682;30.662;2023-02-26T11:20:01;98185.94;;;0.09;88.31
53689;BME280;39583;54.682;30.662;2023-02-26T11:22:33;98192.34;;;0.14;88.18
53689;BME280;39583;54.682;30.662;2023-02-26T11:25:02;98193.00;;;0.02;86.82
53689;BME280;39583;54.682;30.662;2023-02-26T11:27:35;98209.59;;;-0.19;87.35
53689;BME280;39583;54.682;30.662;2023-02-26T11:30:10;98210.31;;;-0.25;87.23
53689;BME280;39583;54.682;30.662;2023-02-26T11:32:39;98229.53;;;-0.32;86.96
53689;BME280;39583;54.682;30.662;2023-02-26T11:35:08;98197.69;;;-0.53;87.15
53689;BME280;39583;54.682;30.662;2023-02-26T11:37:38;98223.84;;;-0.58;86.72
53689;BME280;39583;54.682;30.662;2023-02-26T11:42:48;98250.84;;;-0.63;86.97
53689;BME280;39583;54.682;30.662;2023-02-26T11:45:17;98257.41;;;-0.58;87.53
53689;BME280;39583;54.682;30.662;2023-02-26T11:47:46;98286.69;;;-0.45;88.08
53689;BME280;39583;54.682;30.662;2023-02-26T11:50:20;98268.69;;;-0.65;85.98
53689;BME280;39583;54.682;30.662;2023-02-26T11:52:55;98271.34;;;-0.65;86.31
53689;BME280;39583;54.682;30.662;2023-02-26T11:55:29;98269.38;;;-0.71;85.76
53689;BME280;39583;54.682;30.662;2023-02-26T11:57:57;98281.16;;;-0.73;86.06
53689;BME280;39583;54.682;30.662;2023-02-26T12:00:30;98292.00;;;-0.68;85.84
53689;BME280;39583;54.682;30.662;2023-02-26T12:03:01;98262.88;;;-0.83;86.32
53689;BME280;39583;54.682;30.662;2023-02-26T12:05:30;98294.91;;;-0.78;85.54
53689;BME280;39583;54.682;30.662;2023-02-26T12:07:57;98305.97;;;-0.82;85.79
53689;BME280;39583;54.682;30.662;2023-02-26T12:10:29;98308.97;;;-0.85;85.71
53689;BME280;39583;54.682;30.662;2023-02-26T12:13:16;98307.50;;;-0.88;85.63
53689;BME280;39583;54.682;30.662;2023-02-26T12:15:59;98317.09;;;-0.87;85.82
53689;BME280;39583;54.682;30.662;2023-02-26T12:18:45;98318.84;;;-0.79;86.11
53689;BME280;39583;54.682;30.662;2023-02-26T12:21:36;98326.50;;;-0.62;86.96
53689;BME280;39583;54.682;30.662;2023-02-26T12:27:46;98324.72;;;-0.69;86.01
53689;BME280;39583;54.682;30.662;2023-02-26T12:30:23;98339.94;;;-0.71;85.21
53689;BME280;39583;54.682;30.662;2023-02-26T12:41:09;98361.16;;;-1.19;83.78
53689;BME280;39583;54.682;30.662;2023-02-26T12:43:48;98356.88;;;-1.20;83.98
53689;BME280;39583;54.682;30.662;2023-02-26T12:46:39;98366.97;;;-1.23;84.09
53689;BME280;39583;54.682;30.662;2023-02-26T12:49:29;98360.16;;;-1.17;84.36
53689;BME280;39583;54.682;30.662;2023-02-26T12:57:46;98397.59;;;-1.53;82.71
53689;BME280;39583;54.682;30.662;2023-02-26T13:06:20;98415.28;;;-1.70;83.09
53689;BME280;39583;54.682;30.662;2023-02-26T13:09:22;98421.53;;;-1.63;83.08
53689;BME280;39583;54.682;30.662;2023-02-26T13:14:30;98438.19;;;-1.70;83.06
53689;BME280;39583;54.682;30.662;2023-02-26T13:19:51;98431.97;;;-1.77;82.26
53689;BME280;39583;54.682;30.662;2023-02-26T13:22:20;98436.06;;;-1.75;82.33
53689;BME280;39583;54.682;30.662;2023-02-26T13:25:17;98440.53;;;-1.75;81.98
53689;BME280;39583;54.682;30.662;2023-02-26T13:27:45;98443.81;;;-1.73;82.45
53689;BME280;39583;54.682;30.662;2023-02-26T13:30:20;98445.97;;;-1.77;81.98
53689;BME280;39583;54.682;30.662;2023-02-26T13:32:50;98447.94;;;-1.71;82.56
53689;BME280;39583;54.682;30.662;2023-02-26T13:37:56;98470.03;;;-1.72;81.56
53689;BME280;39583;54.682;30.662;2023-02-26T13:46:32;98489.50;;;-1.65;81.48
53689;BME280;39583;54.682;30.662;2023-02-26T13:49:50;98506.66;;;-1.61;81.99
53689;BME280;39583;54.682;30.662;2023-02-26T13:52:27;98510.47;;;-1.55;81.75
53689;BME280;39583;54.682;30.662;2023-02-26T13:54:54;98503.03;;;-1.60;81.59
53689;BME280;39583;54.682;30.662;2023-02-26T14:00:28;98526.13;;;-1.62;81.72
53689;BME280;39583;54.682;30.662;2023-02-26T14:03:29;98521.53;;;-1.68;81.21
53689;BME280;39583;54.682;30.662;2023-02-26T14:10:57;98548.22;;;-1.71;81.75
53689;BME280;39583;54.682;30.662;2023-02-26T14:13:34;98552.69;;;-1.71;81.49
53689;BME280;39583;54.682;30.662;2023-02-26T14:26:35;98576.19;;;-2.11;80.44
53689;BME280;39583;54.682;30.662;2023-02-26T14:34:34;98623.22;;;-2.40;80.27
53689;BME280;39583;54.682;30.662;2023-02-26T14:37:06;98620.91;;;-2.43;80.04
53689;BME280;39583;54.682;30.662;2023-02-26T14:39:37;98635.53;;;-2.49;80.24
53689;BME280;39583;54.682;30.662;2023-02-26T14:44:44;98640.97;;;-2.50;80.85
53689;BME280;39583;54.682;30.662;2023-02-26T14:47:12;98638.47;;;-2.60;80.19
53689;BME280;39583;54.682;30.662;2023-02-26T14:49:42;98651.78;;;-2.61;80.21
53689;BME280;39583;54.682;30.662;2023-02-26T14:55:12;98654.56;;;-2.63;80.93
53689;BME280;39583;54.682;30.662;2023-02-26T15:09:06;98695.06;;;-2.64;83.09
53689;BME280;39583;54.682;30.662;2023-02-26T15:22:31;98713.88;;;-2.85;82.41
53689;BME280;39583;54.682;30.662;2023-02-26T15:25:00;98721.03;;;-2.95;82.43
53689;BME280;39583;54.682;30.662;2023-02-26T15:27:30;98720.53;;;-2.99;82.22
53689;BME280;39583;54.682;30.662;2023-02-26T15:29:58;98731.66;;;-3.05;81.98
53689;BME280;39583;54.682;30.662;2023-02-26T15:32:28;98731.97;;;-3.08;82.62
53689;BME280;39583;54.682;30.662;2023-02-26T15:37:27;98747.59;;;-3.06;82.79
53689;BME280;39583;54.682;30.662;2023-02-26T15:39:59;98751.38;;;-3.09;83.13
53689;BME280;39583;54.682;30.662;2023-02-26T15:42:36;98764.97;;;-3.13;83.19
53689;BME280;39583;54.682;30.662;2023-02-26T15:45:12;98755.06;;;-3.19;83.03
53689;BME280;39583;54.682;30.662;2023-02-26T15:47:40;98768.69;;;-3.24;83.43
53689;BME280;39583;54.682;30.662;2023-02-26T15:50:08;98777.81;;;-3.28;83.13
53689;BME280;39583;54.682;30.662;2023-02-26T15:52:39;98780.75;;;-3.31;83.37
53689;BME280;39583;54.682;30.662;2023-02-26T15:55:05;98788.81;;;-3.33;83.71
53689;BME280;39583;54.682;30.662;2023-02-26T15:57:32;98784.00;;;-3.37;83.60
53689;BME280;39583;54.682;30.662;2023-02-26T16:00:13;98790.66;;;-3.43;83.73
53689;BME280;39583;54.682;30.662;2023-02-26T16:02:41;98759.22;;;-3.62;83.94
53689;BME280;39583;54.682;30.662;2023-02-26T16:05:10;98793.91;;;-3.49;83.92
53689;BME280;39583;54.682;30.662;2023-02-26T16:07:40;98802.94;;;-3.51;84.05
53689;BME280;39583;54.682;30.662;2023-02-26T16:10:33;98805.69;;;-3.53;84.32
53689;BME280;39583;54.682;30.662;2023-02-26T16:13:04;98809.28;;;-3.54;84.52
53689;BME280;39583;54.682;30.662;2023-02-26T16:15:36;98814.03;;;-3.58;84.69
53689;BME280;39583;54.682;30.662;2023-02-26T16:18:06;98819.44;;;-3.59;84.63
53689;BME280;39583;54.682;30.662;2023-02-26T16:20:45;98833.72;;;-3.62;84.83
53689;BME280;39583;54.682;30.662;2023-02-26T16:23:16;98831.34;;;-3.65;84.85
53689;BME280;39583;54.682;30.662;2023-02-26T16:26:01;98841.03;;;-3.65;85.14
53689;BME280;39583;54.682;30.662;2023-02-26T16:28:33;98833.44;;;-3.68;84.83
53689;BME280;39583;54.682;30.662;2023-02-26T16:31:04;98831.72;;;-3.87;85.04
53689;BME280;39583;54.682;30.662;2023-02-26T16:33:33;98846.38;;;-3.75;84.95
53689;BME280;39583;54.682;30.662;2023-02-26T16:36:10;98843.22;;;-3.88;84.92
53689;BME280;39583;54.682;30.662;2023-02-26T16:38:46;98863.53;;;-3.80;85.38
53689;BME280;39583;54.682;30.662;2023-02-26T16:41:15;98863.69;;;-3.82;85.46
53689;BME280;39583;54.682;30.662;2023-02-26T16:46:13;98877.97;;;-3.84;85.67
53689;BME280;39583;54.682;30.662;2023-02-26T16:48:49;98876.44;;;-3.87;85.60
53689;BME280;39583;54.682;30.662;2023-02-26T16:51:24;98887.13;;;-3.89;85.69
53689;BME280;39583;54.682;30.662;2023-02-26T16:54:04;98884.63;;;-3.90;86.05
53689;BME280;39583;54.682;30.662;2023-02-26T16:56:39;98892.09;;;-3.86;86.07
53689;BME280;39583;54.682;30.662;2023-02-26T16:59:21;98889.59;;;-3.87;86.20
53689;BME280;39583;54.682;30.662;2023-02-26T17:01:52;98902.06;;;-3.89;86.07
53689;BME280;39583;54.682;30.662;2023-02-26T17:04:23;98885.75;;;-4.02;86.20
53689;BME280;39583;54.682;30.662;2023-02-26T17:06:51;98915.47;;;-3.92;86.18
53689;BME280;39583;54.682;30.662;2023-02-26T17:10:04;98902.63;;;-3.95;86.41
53689;BME280;39583;54.682;30.662;2023-02-26T17:12:21;98913.81;;;-3.93;86.27
53689;BME280;39583;54.682;30.662;2023-02-26T17:14:57;98917.41;;;-3.94;86.53
53689;BME280;39583;54.682;30.662;2023-02-26T17:17:26;98927.09;;;-3.95;86.53
53689;BME280;39583;54.682;30.662;2023-02-26T17:19:52;98933.50;;;-3.97;86.34
53689;BME280;39583;54.682;30.662;2023-02-26T17:22:26;98937.38;;;-4.01;86.40
53689;BME280;39583;54.682;30.662;2023-02-26T17:24:54;98931.28;;;-4.02;86.69
53689;BME280;39583;54.682;30.662;2023-02-26T17:27:31;98937.78;;;-4.06;86.45
53689;BME280;39583;54.682;30.662;2023-02-26T17:29:59;98946.78;;;-4.08;86.34
53689;BME280;39583;54.682;30.662;2023-02-26T17:32:26;98943.19;;;-4.07;86.84
53689;BME280;39583;54.682;30.662;2023-02-26T17:34:53;98953.84;;;-4.09;86.52
53689;BME280;39583;54.682;30.662;2023-02-26T17:37:20;98950.66;;;-4.12;86.34
53689;BME280;39583;54.682;30.662;2023-02-26T17:39:47;98978.91;;;-4.14;86.61
53689;BME280;39583;54.682;30.662;2023-02-26T17:42:17;98960.63;;;-4.26;86.69
53689;BME280;39583;54.682;30.662;2023-02-26T17:44:48;98979.31;;;-4.09;86.38
53689;BME280;39583;54.682;30.662;2023-02-26T17:47:20;98981.66;;;-4.16;86.42
53689;BME280;39583;54.682;30.662;2023-02-26T17:49:48;98985.25;;;-4.17;86.20
53689;BME280;39583;54.682;30.662;2023-02-26T17:52:15;98980.94;;;-4.18;86.12
53689;BME280;39583;54.682;30.662;2023-02-26T17:54:42;98988.00;;;-4.19;86.33
53689;BME280;39583;54.682;30.662;2023-02-26T17:57:15;99001.28;;;-4.20;86.08
53689;BME280;39583;54.682;30.662;2023-02-26T17:59:42;98999.63;;;-4.21;85.91
53689;BME280;39583;54.682;30.662;2023-02-26T18:02:23;99004.06;;;-4.22;85.92
53689;BME280;39583;54.682;30.662;2023-02-26T18:04:52;99006.69;;;-4.22;86.15
53689;BME280;39583;54.682;30.662;2023-02-26T18:07:19;99009.31;;;-4.22;86.18
53689;BME280;39583;54.682;30.662;2023-02-26T18:09:47;99010.28;;;-4.23;85.70
53689;BME280;39583;54.682;30.662;2023-02-26T18:12:19;99015.84;;;-4.26;85.85
53689;BME280;39583;54.682;30.662;2023-02-26T18:14:46;99017.50;;;-4.25;85.73
53689;BME280;39583;54.682;30.662;2023-02-26T18:17:24;99019.44;;;-4.27;85.59
53689;BME280;39583;54.682;30.662;2023-02-26T18:19:53;99018.03;;;-4.31;85.48
53689;BME280;39583;54.682;30.662;2023-02-26T18:22:21;99028.97;;;-4.26;85.48
53689;BME280;39583;54.682;30.662;2023-02-26T18:24:51;99034.50;;;-4.29;85.44
53689;BME280;39583;54.682;30.662;2023-02-26T18:27:21;99036.41;;;-4.31;85.13
53689;BME280;39583;54.682;30.662;2023-02-26T18:29:48;99048.72;;;-4.31;85.48
53689;BME280;39583;54.682;30.662;2023-02-26T18:32:20;99056.75;;;-4.33;85.54
53689;BME280;39583;54.682;30.662;2023-02-26T18:34:48;99050.81;;;-4.35;85.37
53689;BME280;39583;54.682;30.662;2023-02-26T18:37:21;99065.34;;;-4.40;85.08
53689;BME280;39583;54.682;30.662;2023-02-26T18:39:49;99068.19;;;-4.43;84.98
53689;BME280;39583;54.682;30.662;2023-02-26T18:44:44;99077.06;;;-4.45;85.41
53689;BME280;39583;54.682;30.662;2023-02-26T18:47:11;99068.19;;;-4.43;85.42
53689;BME280;39583;54.682;30.662;2023-02-26T18:49:38;99079.44;;;-4.41;85.73
53689;BME280;39583;54.682;30.662;2023-02-26T18:52:04;99073.59;;;-4.45;85.33
53689;BME280;39583;54.682;30.662;2023-02-26T18:54:33;99078.28;;;-4.49;85.33
53689;BME280;39583;54.682;30.662;2023-02-26T18:56:59;99093.94;;;-4.47;85.49
53689;BME280;39583;54.682;30.662;2023-02-26T18:59:29;99087.84;;;-4.48;85.73
53689;BME280;39583;54.682;30.662;2023-02-26T19:01:55;99075.22;;;-4.63;85.73
53689;BME280;39583;54.682;30.662;2023-02-26T19:04:22;99103.59;;;-4.48;85.65
53689;BME280;39583;54.682;30.662;2023-02-26T19:06:48;99108.16;;;-4.50;85.62
53689;BME280;39583;54.682;30.662;2023-02-26T19:09:15;99124.06;;;-4.51;85.88
53689;BME280;39583;54.682;30.662;2023-02-26T19:11:41;99122.41;;;-4.52;86.02
53689;BME280;39583;54.682;30.662;2023-02-26T19:14:07;99111.56;;;-4.68;85.89
